sensor_id;sensor_type;location;lat;lon;timestamp;P1;durP1;ratioP1;P2;durP2;ratioP2
77018;SDS011;66044;53.142;17.962;2022-12-19T00:01:09;28.50;;;10.00;;
77018;SDS011;66044;53.142;17.962;2022-12-19T00:03:44;24.30;;;8.70;;
77018;SDS011;66044;53.142;17.962;2022-12-19T00:06:12;35.60;;;12.90;;
77018;SDS011;66044;53.142;17.962;2022-12-19T00:08:40;39.30;;;13.40;;
77018;SDS011;66044;53.142;17.962;2022-12-19T00:11:09;43.50;;;14.40;;
77018;SDS011;66044;53.142;17.962;2022-12-19T00:13:36;44.00;;;13.00;;
77018;SDS011;66044;53.142;17.962;2022-12-19T00:16:04;30.40;;;11.90;;
77018;SDS011;66044;53.142;17.962;2022-12-19T00:18:37;33.30;;;11.70;;
77018;SDS011;66044;53.142;17.962;2022-12-19T00:21:05;26.50;;;10.10;;
77018;SDS011;66044;53.142;17.962;2022-12-19T00:23:32;27.90;;;10.50;;
77018;SDS011;66044;53.142;17.962;2022-12-19T00:26:07;32.80;;;11.40;;
77018;SDS011;66044;53.142;17.962;2022-12-19T00:28:40;47.30;;;12.50;;
77018;SDS011;66044;53.142;17.962;2022-12-19T00:31:07;35.30;;;9.70;;
77018;SDS011;66044;53.142;17.962;2022-12-19T00:33:34;28.30;;;10.40;;
77018;SDS011;66044;53.142;17.962;2022-12-19T00:36:02;43.50;;;14.60;;
77018;SDS011;66044;53.142;17.962;2022-12-19T00:38:31;33.10;;;11.30;;
77018;SDS011;66044;53.142;17.962;2022-12-19T00:44:04;42.70;;;11.30;;
77018;SDS011;66044;53.142;17.962;2022-12-19T00:46:32;28.20;;;8.40;;
77018;SDS011;66044;53.142;17.962;2022-12-19T00:49:00;24.30;;;7.00;;
77018;SDS011;66044;53.142;17.962;2022-12-19T00:51:27;38.30;;;13.20;;
77018;SDS011;66044;53.142;17.962;2022-12-19T00:53:56;33.20;;;11.10;;
77018;SDS011;66044;53.142;17.962;2022-12-19T00:56:24;28.20;;;11.80;;
77018;SDS011;66044;53.142;17.962;2022-12-19T00:58:53;33.90;;;11.00;;
77018;SDS011;66044;53.142;17.962;2022-12-19T01:01:21;52.60;;;16.30;;
77018;SDS011;66044;53.142;17.962;2022-12-19T01:03:52;35.10;;;11.70;;
77018;SDS011;66044;53.142;17.962;2022-12-19T01:06:19;31.70;;;10.50;;
77018;SDS011;66044;53.142;17.962;2022-12-19T01:08:46;32.60;;;11.50;;
77018;SDS011;66044;53.142;17.962;2022-12-19T01:11:12;46.50;;;14.60;;
77018;SDS011;66044;53.142;17.962;2022-12-19T01:13:39;43.00;;;14.30;;
77018;SDS011;66044;53.142;17.962;2022-12-19T01:16:07;45.80;;;13.50;;
77018;SDS011;66044;53.142;17.962;2022-12-19T01:18:36;39.40;;;12.80;;
77018;SDS011;66044;53.142;17.962;2022-12-19T01:21:03;40.80;;;13.30;;
77018;SDS011;66044;53.142;17.962;2022-12-19T01:23:32;46.70;;;12.30;;
77018;SDS011;66044;53.142;17.962;2022-12-19T01:26:00;53.20;;;17.40;;
77018;SDS011;66044;53.142;17.962;2022-12-19T01:28:26;38.10;;;12.60;;
77018;SDS011;66044;53.142;17.962;2022-12-19T01:30:56;35.00;;;11.10;;
77018;SDS011;66044;53.142;17.962;2022-12-19T01:33:23;44.40;;;12.60;;
77018;SDS011;66044;53.142;17.962;2022-12-19T01:35:49;47.20;;;14.40;;
77018;SDS011;66044;53.142;17.962;2022-12-19T01:38:16;33.70;;;10.40;;
77018;SDS011;66044;53.142;17.962;2022-12-19T01:40:48;32.40;;;10.30;;
77018;SDS011;66044;53.142;17.962;2022-12-19T01:43:19;35.10;;;11.50;;
77018;SDS011;66044;53.142;17.962;2022-12-19T01:45:46;27.10;;;9.90;;
77018;SDS011;66044;53.142;17.962;2022-12-19T01:48:21;33.10;;;10.50;;
77018;SDS011;66044;53.142;17.962;2022-12-19T01:51:15;29.20;;;10.30;;
77018;SDS011;66044;53.142;17.962;2022-12-19T01:53:48;32.70;;;10.00;;
77018;SDS011;66044;53.142;17.962;2022-12-19T01:56:30;22.80;;;7.20;;
77018;SDS011;66044;53.142;17.962;2022-12-19T01:59:00;23.30;;;7.70;;
77018;SDS011;66044;53.142;17.962;2022-12-19T02:04:19;24.10;;;7.10;;
77018;SDS011;66044;53.142;17.962;2022-12-19T02:06:46;24.00;;;6.60;;
77018;SDS011;66044;53.142;17.962;2022-12-19T02:09:14;19.40;;;7.40;;
77018;SDS011;66044;53.142;17.962;2022-12-19T02:11:41;25.40;;;9.60;;
77018;SDS011;66044;53.142;17.962;2022-12-19T02:14:07;26.20;;;8.80;;
77018;SDS011;66044;53.142;17.962;2022-12-19T02:22:10;26.70;;;8.10;;
77018;SDS011;66044;53.142;17.962;2022-12-19T02:41:06;24.00;;;8.40;;
77018;SDS011;66044;53.142;17.962;2022-12-19T02:43:46;26.10;;;8.20;;
77018;SDS011;66044;53.142;17.962;2022-12-19T02:46:15;24.70;;;8.20;;
77018;SDS011;66044;53.142;17.962;2022-12-19T02:48:44;25.50;;;8.50;;
77018;SDS011;66044;53.142;17.962;2022-12-19T02:51:12;23.50;;;8.40;;
77018;SDS011;66044;53.142;17.962;2022-12-19T02:53:38;25.30;;;8.10;;
77018;SDS011;66044;53.142;17.962;2022-12-19T02:56:15;14.60;;;6.10;;
77018;SDS011;66044;53.142;17.962;2022-12-19T03:01:52;22.70;;;8.60;;
77018;SDS011;66044;53.142;17.962;2022-12-19T03:07:09;22.20;;;7.40;;
77018;SDS011;66044;53.142;17.962;2022-12-19T03:10:27;28.90;;;8.90;;
77018;SDS011;66044;53.142;17.962;2022-12-19T03:13:05;21.10;;;6.60;;
77018;SDS011;66044;53.142;17.962;2022-12-19T03:15:36;23.30;;;7.70;;
77018;SDS011;66044;53.142;17.962;2022-12-19T03:18:04;25.20;;;8.60;;
77018;SDS011;66044;53.142;17.962;2022-12-19T03:20:35;22.70;;;8.00;;
77018;SDS011;66044;53.142;17.962;2022-12-19T03:23:07;21.90;;;7.60;;
77018;SDS011;66044;53.142;17.962;2022-12-19T03:25:34;19.40;;;7.50;;
77018;SDS011;66044;53.142;17.962;2022-12-19T03:28:01;30.10;;;9.00;;
77018;SDS011;66044;53.142;17.962;2022-12-19T03:30:34;20.50;;;6.90;;
77018;SDS011;66044;53.142;17.962;2022-12-19T03:33:01;23.70;;;7.00;;
77018;SDS011;66044;53.142;17.962;2022-12-19T03:35:28;19.70;;;7.80;;
77018;SDS011;66044;53.142;17.962;2022-12-19T03:38:00;31.20;;;9.90;;
77018;SDS011;66044;53.142;17.962;2022-12-19T03:40:29;30.30;;;9.60;;
77018;SDS011;66044;53.142;17.962;2022-12-19T03:43:00;30.30;;;9.90;;
77018;SDS011;66044;53.142;17.962;2022-12-19T03:54:15;18.80;;;7.90;;
77018;SDS011;66044;53.142;17.962;2022-12-19T03:57:04;23.50;;;8.00;;
77018;SDS011;66044;53.142;17.962;2022-12-19T03:59:44;18.70;;;5.70;;
77018;SDS011;66044;53.142;17.962;2022-12-19T04:02:20;17.20;;;6.00;;
77018;SDS011;66044;53.142;17.962;2022-12-19T04:04:54;21.10;;;7.10;;
77018;SDS011;66044;53.142;17.962;2022-12-19T04:07:24;18.80;;;6.80;;
77018;SDS011;66044;53.142;17.962;2022-12-19T04:09:51;22.80;;;7.40;;
77018;SDS011;66044;53.142;17.962;2022-12-19T04:12:28;28.50;;;8.50;;
77018;SDS011;66044;53.142;17.962;2022-12-19T04:14:59;26.00;;;8.60;;
77018;SDS011;66044;53.142;17.962;2022-12-19T04:20:20;28.30;;;8.40;;
77018;SDS011;66044;53.142;17.962;2022-12-19T04:23:13;22.10;;;7.60;;
77018;SDS011;66044;53.142;17.962;2022-12-19T04:25:47;27.80;;;9.10;;
77018;SDS011;66044;53.142;17.962;2022-12-19T04:28:19;27.80;;;9.10;;
77018;SDS011;66044;53.142;17.962;2022-12-19T04:30:50;20.70;;;7.70;;
77018;SDS011;66044;53.142;17.962;2022-12-19T04:33:18;26.00;;;8.00;;
77018;SDS011;66044;53.142;17.962;2022-12-19T04:35:45;20.70;;;7.50;;
77018;SDS011;66044;53.142;17.962;2022-12-19T04:38:12;24.10;;;7.20;;
77018;SDS011;66044;53.142;17.962;2022-12-19T04:40:38;20.50;;;6.80;;
77018;SDS011;66044;53.142;17.962;2022-12-19T04:43:04;25.30;;;8.80;;
77018;SDS011;66044;53.142;17.962;2022-12-19T04:45:32;26.50;;;8.60;;
77018;SDS011;66044;53.142;17.962;2022-12-19T04:47:59;20.80;;;7.30;;
77018;SDS011;66044;53.142;17.962;2022-12-19T04:50:25;23.70;;;7.60;;
77018;SDS011;66044;53.142;17.962;2022-12-19T04:52:52;22.10;;;7.60;;
77018;SDS011;66044;53.142;17.962;2022-12-19T04:55:18;20.50;;;7.20;;
77018;SDS011;66044;53.142;17.962;2022-12-19T04:57:45;19.60;;;6.90;;
77018;SDS011;66044;53.142;17.962;2022-12-19T05:00:12;33.10;;;10.30;;
77018;SDS011;66044;53.142;17.962;2022-12-19T05:02:38;29.80;;;9.80;;
77018;SDS011;66044;53.142;17.962;2022-12-19T05:05:05;26.50;;;9.40;;
77018;SDS011;66044;53.142;17.962;2022-12-19T05:07:32;20.20;;;6.20;;
77018;SDS011;66044;53.142;17.962;2022-12-19T05:09:58;33.20;;;9.80;;
77018;SDS011;66044;53.142;17.962;2022-12-19T05:12:25;32.70;;;11.70;;
77018;SDS011;66044;53.142;17.962;2022-12-19T05:14:53;25.80;;;8.70;;
77018;SDS011;66044;53.142;17.962;2022-12-19T05:17:20;25.00;;;7.90;;
77018;SDS011;66044;53.142;17.962;2022-12-19T05:19:46;27.30;;;7.10;;
77018;SDS011;66044;53.142;17.962;2022-12-19T05:22:13;25.50;;;7.80;;
77018;SDS011;66044;53.142;17.962;2022-12-19T05:24:39;26.20;;;9.80;;
77018;SDS011;66044;53.142;17.962;2022-12-19T05:27:06;25.50;;;8.60;;
77018;SDS011;66044;53.142;17.962;2022-12-19T05:29:32;25.60;;;8.40;;
77018;SDS011;66044;53.142;17.962;2022-12-19T05:31:59;22.30;;;7.50;;
77018;SDS011;66044;53.142;17.962;2022-12-19T05:34:26;25.20;;;7.60;;
77018;SDS011;66044;53.142;17.962;2022-12-19T05:36:52;33.60;;;12.30;;
77018;SDS011;66044;53.142;17.962;2022-12-19T05:39:19;22.50;;;7.20;;
77018;SDS011;66044;53.142;17.962;2022-12-19T05:41:45;20.90;;;8.10;;
77018;SDS011;66044;53.142;17.962;2022-12-19T05:44:12;30.70;;;9.10;;
77018;SDS011;66044;53.142;17.962;2022-12-19T05:46:38;32.30;;;10.40;;
77018;SDS011;66044;53.142;17.962;2022-12-19T05:49:05;23.70;;;7.60;;
77018;SDS011;66044;53.142;17.962;2022-12-19T05:51:31;20.50;;;7.50;;
77018;SDS011;66044;53.142;17.962;2022-12-19T05:53:59;19.30;;;6.60;;
77018;SDS011;66044;53.142;17.962;2022-12-19T05:56:26;32.50;;;11.80;;
77018;SDS011;66044;53.142;17.962;2022-12-19T05:58:52;24.20;;;8.10;;
77018;SDS011;66044;53.142;17.962;2022-12-19T06:01:20;21.70;;;8.80;;
77018;SDS011;66044;53.142;17.962;2022-12-19T06:03:49;20.30;;;8.40;;
77018;SDS011;66044;53.142;17.962;2022-12-19T06:06:20;22.40;;;8.30;;
77018;SDS011;66044;53.142;17.962;2022-12-19T06:08:53;26.50;;;9.50;;
77018;SDS011;66044;53.142;17.962;2022-12-19T06:11:19;23.90;;;8.10;;
77018;SDS011;66044;53.142;17.962;2022-12-19T06:13:46;21.20;;;7.00;;
77018;SDS011;66044;53.142;17.962;2022-12-19T06:16:14;22.40;;;5.70;;
77018;SDS011;66044;53.142;17.962;2022-12-19T06:18:42;19.70;;;7.50;;
77018;SDS011;66044;53.142;17.962;2022-12-19T06:21:11;21.30;;;7.50;;
77018;SDS011;66044;53.142;17.962;2022-12-19T06:23:40;20.70;;;7.60;;
77018;SDS011;66044;53.142;17.962;2022-12-19T06:26:07;19.70;;;7.80;;
77018;SDS011;66044;53.142;17.962;2022-12-19T06:28:36;18.60;;;7.50;;
77018;SDS011;66044;53.142;17.962;2022-12-19T06:31:03;22.40;;;8.50;;
77018;SDS011;66044;53.142;17.962;2022-12-19T06:33:31;19.00;;;8.60;;
77018;SDS011;66044;53.142;17.962;2022-12-19T06:38:29;19.10;;;6.10;;
77018;SDS011;66044;53.142;17.962;2022-12-19T06:40:56;26.50;;;9.60;;
77018;SDS011;66044;53.142;17.962;2022-12-19T06:43:41;27.80;;;9.00;;
77018;SDS011;66044;53.142;17.962;2022-12-19T06:46:08;22.90;;;7.40;;
77018;SDS011;66044;53.142;17.962;2022-12-19T06:48:34;21.20;;;8.70;;
77018;SDS011;66044;53.142;17.962;2022-12-19T06:51:01;29.30;;;9.80;;
77018;SDS011;66044;53.142;17.962;2022-12-19T06:53:27;29.30;;;9.80;;
77018;SDS011;66044;53.142;17.962;2022-12-19T06:55:55;20.90;;;7.10;;
77018;SDS011;66044;53.142;17.962;2022-12-19T06:58:24;18.10;;;6.60;;
77018;SDS011;66044;53.142;17.962;2022-12-19T07:00:51;19.40;;;6.20;;
77018;SDS011;66044;53.142;17.962;2022-12-19T07:03:19;21.10;;;8.00;;
77018;SDS011;66044;53.142;17.962;2022-12-19T07:05:49;24.60;;;8.00;;
77018;SDS011;66044;53.142;17.962;2022-12-19T07:08:16;23.10;;;8.30;;
77018;SDS011;66044;53.142;17.962;2022-12-19T07:10:42;19.80;;;6.50;;
77018;SDS011;66044;53.142;17.962;2022-12-19T07:13:09;15.80;;;6.60;;
77018;SDS011;66044;53.142;17.962;2022-12-19T07:15:35;29.10;;;10.80;;
77018;SDS011;66044;53.142;17.962;2022-12-19T07:18:03;18.40;;;7.40;;
77018;SDS011;66044;53.142;17.962;2022-12-19T07:20:32;25.40;;;10.20;;
77018;SDS011;66044;53.142;17.962;2022-12-19T07:23:01;23.80;;;8.60;;
77018;SDS011;66044;53.142;17.962;2022-12-19T07:25:30;16.50;;;7.20;;
77018;SDS011;66044;53.142;17.962;2022-12-19T07:27:56;20.40;;;7.80;;
77018;SDS011;66044;53.142;17.962;2022-12-19T07:30:23;21.00;;;7.30;;
77018;SDS011;66044;53.142;17.962;2022-12-19T07:32:50;19.70;;;7.10;;
77018;SDS011;66044;53.142;17.962;2022-12-19T07:35:16;17.60;;;7.70;;
77018;SDS011;66044;53.142;17.962;2022-12-19T07:37:42;22.10;;;8.40;;
77018;SDS011;66044;53.142;17.962;2022-12-19T07:40:09;26.20;;;9.70;;
77018;SDS011;66044;53.142;17.962;2022-12-19T07:42:36;25.10;;;6.90;;
77018;SDS011;66044;53.142;17.962;2022-12-19T07:45:04;29.40;;;8.70;;
77018;SDS011;66044;53.142;17.962;2022-12-19T07:47:30;21.20;;;8.00;;
77018;SDS011;66044;53.142;17.962;2022-12-19T07:49:57;22.80;;;9.20;;
77018;SDS011;66044;53.142;17.962;2022-12-19T07:52:23;29.50;;;10.20;;
77018;SDS011;66044;53.142;17.962;2022-12-19T07:54:50;18.90;;;7.40;;
77018;SDS011;66044;53.142;17.962;2022-12-19T07:57:17;24.60;;;8.10;;
77018;SDS011;66044;53.142;17.962;2022-12-19T07:59:43;23.10;;;8.20;;
77018;SDS011;66044;53.142;17.962;2022-12-19T08:02:10;22.50;;;8.40;;
77018;SDS011;66044;53.142;17.962;2022-12-19T08:04:36;24.80;;;8.90;;
77018;SDS011;66044;53.142;17.962;2022-12-19T08:07:03;26.70;;;10.40;;
77018;SDS011;66044;53.142;17.962;2022-12-19T08:09:29;20.20;;;8.00;;
77018;SDS011;66044;53.142;17.962;2022-12-19T08:11:56;25.90;;;10.30;;
77018;SDS011;66044;53.142;17.962;2022-12-19T08:14:24;24.40;;;8.20;;
77018;SDS011;66044;53.142;17.962;2022-12-19T08:16:50;25.10;;;8.60;;
77018;SDS011;66044;53.142;17.962;2022-12-19T08:19:17;26.10;;;8.30;;
77018;SDS011;66044;53.142;17.962;2022-12-19T08:21:43;31.80;;;10.30;;
77018;SDS011;66044;53.142;17.962;2022-12-19T08:24:10;29.60;;;8.60;;
77018;SDS011;66044;53.142;17.962;2022-12-19T08:26:36;23.50;;;8.40;;
77018;SDS011;66044;53.142;17.962;2022-12-19T08:29:03;19.90;;;8.40;;
77018;SDS011;66044;53.142;17.962;2022-12-19T08:31:29;28.90;;;10.30;;
77018;SDS011;66044;53.142;17.962;2022-12-19T08:33:58;26.80;;;10.00;;
77018;SDS011;66044;53.142;17.962;2022-12-19T08:36:25;28.40;;;10.00;;
77018;SDS011;66044;53.142;17.962;2022-12-19T08:38:52;22.70;;;8.70;;
77018;SDS011;66044;53.142;17.962;2022-12-19T08:41:19;30.20;;;11.70;;
77018;SDS011;66044;53.142;17.962;2022-12-19T08:43:49;21.20;;;8.30;;
77018;SDS011;66044;53.142;17.962;2022-12-19T08:46:17;28.60;;;10.30;;
77018;SDS011;66044;53.142;17.962;2022-12-19T08:48:45;27.40;;;10.50;;
77018;SDS011;66044;53.142;17.962;2022-12-19T08:51:12;20.90;;;9.10;;
77018;SDS011;66044;53.142;17.962;2022-12-19T08:53:40;26.50;;;9.30;;
77018;SDS011;66044;53.142;17.962;2022-12-19T08:56:15;26.80;;;8.90;;
77018;SDS011;66044;53.142;17.962;2022-12-19T08:58:43;29.50;;;10.50;;
77018;SDS011;66044;53.142;17.962;2022-12-19T09:01:10;28.70;;;10.90;;
77018;SDS011;66044;53.142;17.962;2022-12-19T09:03:39;32.60;;;11.90;;
77018;SDS011;66044;53.142;17.962;2022-12-19T09:06:06;29.50;;;10.50;;
77018;SDS011;66044;53.142;17.962;2022-12-19T09:08:35;25.90;;;9.10;;
77018;SDS011;66044;53.142;17.962;2022-12-19T09:11:05;24.00;;;9.40;;
77018;SDS011;66044;53.142;17.962;2022-12-19T09:13:40;27.90;;;10.80;;
77018;SDS011;66044;53.142;17.962;2022-12-19T09:16:18;33.00;;;11.70;;
77018;SDS011;66044;53.142;17.962;2022-12-19T09:18:47;28.20;;;11.20;;
77018;SDS011;66044;53.142;17.962;2022-12-19T09:21:16;30.90;;;11.60;;
77018;SDS011;66044;53.142;17.962;2022-12-19T09:23:46;27.00;;;10.80;;
77018;SDS011;66044;53.142;17.962;2022-12-19T09:26:18;29.30;;;12.40;;
77018;SDS011;66044;53.142;17.962;2022-12-19T09:28:46;34.00;;;12.30;;
77018;SDS011;66044;53.142;17.962;2022-12-19T09:31:14;33.30;;;12.80;;
77018;SDS011;66044;53.142;17.962;2022-12-19T09:33:42;25.10;;;10.70;;
77018;SDS011;66044;53.142;17.962;2022-12-19T09:36:12;27.30;;;11.60;;
77018;SDS011;66044;53.142;17.962;2022-12-19T09:38:40;32.70;;;11.60;;
77018;SDS011;66044;53.142;17.962;2022-12-19T09:46:58;29.80;;;12.10;;
77018;SDS011;66044;53.142;17.962;2022-12-19T09:49:35;26.60;;;11.00;;
77018;SDS011;66044;53.142;17.962;2022-12-19T09:52:05;29.70;;;13.50;;
77018;SDS011;66044;53.142;17.962;2022-12-19T09:54:37;25.60;;;10.50;;
77018;SDS011;66044;53.142;17.962;2022-12-19T09:57:13;29.30;;;11.50;;
77018;SDS011;66044;53.142;17.962;2022-12-19T10:00:06;27.40;;;11.00;;
77018;SDS011;66044;53.142;17.962;2022-12-19T10:02:40;26.00;;;10.50;;
77018;SDS011;66044;53.142;17.962;2022-12-19T10:08:17;27.50;;;10.60;;
77018;SDS011;66044;53.142;17.962;2022-12-19T10:16:14;30.70;;;12.40;;
77018;SDS011;66044;53.142;17.962;2022-12-19T10:21:34;33.90;;;13.40;;
77018;SDS011;66044;53.142;17.962;2022-12-19T10:24:11;35.00;;;11.30;;
77018;SDS011;66044;53.142;17.962;2022-12-19T10:26:59;33.30;;;13.00;;
77018;SDS011;66044;53.142;17.962;2022-12-19T10:35:15;31.90;;;12.40;;
77018;SDS011;66044;53.142;17.962;2022-12-19T10:37:47;25.90;;;10.10;;
77018;SDS011;66044;53.142;17.962;2022-12-19T10:40:31;30.50;;;11.50;;
77018;SDS011;66044;53.142;17.962;2022-12-19T10:46:00;27.10;;;9.60;;
77018;SDS011;66044;53.142;17.962;2022-12-19T10:48:32;36.70;;;13.20;;
77018;SDS011;66044;53.142;17.962;2022-12-19T10:50:59;35.20;;;14.60;;
77018;SDS011;66044;53.142;17.962;2022-12-19T10:53:26;31.20;;;12.50;;
77018;SDS011;66044;53.142;17.962;2022-12-19T10:55:59;34.30;;;12.70;;
77018;SDS011;66044;53.142;17.962;2022-12-19T10:58:36;26.50;;;11.70;;
77018;SDS011;66044;53.142;17.962;2022-12-19T11:03:51;24.90;;;10.00;;
77018;SDS011;66044;53.142;17.962;2022-12-19T11:06:46;28.10;;;9.80;;
77018;SDS011;66044;53.142;17.962;2022-12-19T11:11:47;28.60;;;12.40;;
77018;SDS011;66044;53.142;17.962;2022-12-19T11:14:22;25.10;;;10.40;;
77018;SDS011;66044;53.142;17.962;2022-12-19T11:16:50;29.40;;;12.70;;
77018;SDS011;66044;53.142;17.962;2022-12-19T11:21:56;30.90;;;12.70;;
77018;SDS011;66044;53.142;17.962;2022-12-19T11:24:36;36.90;;;13.40;;
77018;SDS011;66044;53.142;17.962;2022-12-19T11:32:42;29.50;;;10.50;;
77018;SDS011;66044;53.142;17.962;2022-12-19T11:35:15;44.00;;;15.30;;
77018;SDS011;66044;53.142;17.962;2022-12-19T11:43:10;38.90;;;14.40;;
77018;SDS011;66044;53.142;17.962;2022-12-19T11:51:03;37.00;;;13.90;;
77018;SDS011;66044;53.142;17.962;2022-12-19T11:53:34;38.40;;;13.70;;
77018;SDS011;66044;53.142;17.962;2022-12-19T11:56:13;39.20;;;14.80;;
77018;SDS011;66044;53.142;17.962;2022-12-19T11:58:42;31.60;;;11.60;;
77018;SDS011;66044;53.142;17.962;2022-12-19T12:06:36;29.70;;;11.70;;
77018;SDS011;66044;53.142;17.962;2022-12-19T12:09:16;31.70;;;12.00;;
77018;SDS011;66044;53.142;17.962;2022-12-19T12:11:56;38.30;;;13.40;;
77018;SDS011;66044;53.142;17.962;2022-12-19T12:14:44;33.50;;;12.10;;
77018;SDS011;66044;53.142;17.962;2022-12-19T12:34:02;31.80;;;11.90;;
77018;SDS011;66044;53.142;17.962;2022-12-19T12:42:03;28.60;;;12.30;;
77018;SDS011;66044;53.142;17.962;2022-12-19T12:44:54;31.20;;;13.30;;
77018;SDS011;66044;53.142;17.962;2022-12-19T12:47:25;30.90;;;11.90;;
77018;SDS011;66044;53.142;17.962;2022-12-19T12:49:56;30.30;;;12.90;;
77018;SDS011;66044;53.142;17.962;2022-12-19T12:52:28;39.90;;;14.40;;
77018;SDS011;66044;53.142;17.962;2022-12-19T12:55:02;33.80;;;13.00;;
77018;SDS011;66044;53.142;17.962;2022-12-19T12:57:32;31.60;;;13.70;;
77018;SDS011;66044;53.142;17.962;2022-12-19T13:00:14;39.60;;;13.10;;
77018;SDS011;66044;53.142;17.962;2022-12-19T13:08:00;36.40;;;13.10;;
77018;SDS011;66044;53.142;17.962;2022-12-19T13:10:54;33.00;;;14.40;;
77018;SDS011;66044;53.142;17.962;2022-12-19T13:13:46;25.80;;;9.80;;
77018;SDS011;66044;53.142;17.962;2022-12-19T13:19:14;34.60;;;13.30;;
77018;SDS011;66044;53.142;17.962;2022-12-19T13:24:52;42.10;;;16.60;;
77018;SDS011;66044;53.142;17.962;2022-12-19T13:32:31;34.60;;;12.80;;
77018;SDS011;66044;53.142;17.962;2022-12-19T13:42:54;35.00;;;14.40;;
77018;SDS011;66044;53.142;17.962;2022-12-19T13:45:55;35.00;;;13.80;;
77018;SDS011;66044;53.142;17.962;2022-12-19T13:48:45;39.30;;;14.80;;
77018;SDS011;66044;53.142;17.962;2022-12-19T13:51:13;55.40;;;15.90;;
77018;SDS011;66044;53.142;17.962;2022-12-19T13:53:40;27.20;;;11.60;;
77018;SDS011;66044;53.142;17.962;2022-12-19T13:56:12;34.40;;;14.40;;
77018;SDS011;66044;53.142;17.962;2022-12-19T13:58:46;33.10;;;12.20;;
77018;SDS011;66044;53.142;17.962;2022-12-19T14:01:25;32.00;;;12.60;;
77018;SDS011;66044;53.142;17.962;2022-12-19T14:03:55;31.80;;;14.40;;
77018;SDS011;66044;53.142;17.962;2022-12-19T14:06:30;34.30;;;12.90;;
77018;SDS011;66044;53.142;17.962;2022-12-19T14:09:05;33.20;;;12.10;;
77018;SDS011;66044;53.142;17.962;2022-12-19T14:11:41;29.30;;;10.80;;
77018;SDS011;66044;53.142;17.962;2022-12-19T14:14:12;35.60;;;14.80;;
77018;SDS011;66044;53.142;17.962;2022-12-19T14:17:12;38.30;;;15.40;;
77018;SDS011;66044;53.142;17.962;2022-12-19T14:19:45;32.90;;;14.30;;
77018;SDS011;66044;53.142;17.962;2022-12-19T14:22:18;25.10;;;10.10;;
77018;SDS011;66044;53.142;17.962;2022-12-19T14:27:35;44.70;;;17.80;;
77018;SDS011;66044;53.142;17.962;2022-12-19T14:30:05;33.90;;;13.10;;
77018;SDS011;66044;53.142;17.962;2022-12-19T14:32:40;30.00;;;11.80;;
77018;SDS011;66044;53.142;17.962;2022-12-19T14:35:07;30.70;;;13.10;;
77018;SDS011;66044;53.142;17.962;2022-12-19T14:37:42;34.00;;;12.60;;
77018;SDS011;66044;53.142;17.962;2022-12-19T14:40:27;32.70;;;13.00;;
77018;SDS011;66044;53.142;17.962;2022-12-19T14:43:02;37.50;;;14.90;;
77018;SDS011;66044;53.142;17.962;2022-12-19T14:51:33;37.30;;;15.30;;
77018;SDS011;66044;53.142;17.962;2022-12-19T14:56:54;39.40;;;17.00;;
77018;SDS011;66044;53.142;17.962;2022-12-19T14:59:26;36.70;;;14.80;;
77018;SDS011;66044;53.142;17.962;2022-12-19T15:01:59;39.80;;;15.30;;
77018;SDS011;66044;53.142;17.962;2022-12-19T15:04:30;35.70;;;13.20;;
77018;SDS011;66044;53.142;17.962;2022-12-19T15:06:59;36.40;;;15.50;;
77018;SDS011;66044;53.142;17.962;2022-12-19T15:09:29;35.20;;;15.10;;
77018;SDS011;66044;53.142;17.962;2022-12-19T15:12:10;37.80;;;16.30;;
77018;SDS011;66044;53.142;17.962;2022-12-19T15:15:01;37.60;;;15.30;;
77018;SDS011;66044;53.142;17.962;2022-12-19T15:17:45;43.00;;;16.90;;
77018;SDS011;66044;53.142;17.962;2022-12-19T15:20:13;34.50;;;15.20;;
77018;SDS011;66044;53.142;17.962;2022-12-19T15:22:40;34.00;;;14.60;;
77018;SDS011;66044;53.142;17.962;2022-12-19T15:25:13;39.30;;;16.00;;
77018;SDS011;66044;53.142;17.962;2022-12-19T15:27:42;42.20;;;17.60;;
77018;SDS011;66044;53.142;17.962;2022-12-19T15:30:17;34.60;;;15.50;;
77018;SDS011;66044;53.142;17.962;2022-12-19T15:32:46;42.50;;;17.60;;
77018;SDS011;66044;53.142;17.962;2022-12-19T15:35:13;39.80;;;14.90;;
77018;SDS011;66044;53.142;17.962;2022-12-19T15:37:42;37.30;;;14.90;;
77018;SDS011;66044;53.142;17.962;2022-12-19T15:40:14;36.70;;;14.80;;
77018;SDS011;66044;53.142;17.962;2022-12-19T15:42:43;43.00;;;17.80;;
77018;SDS011;66044;53.142;17.962;2022-12-19T15:45:12;41.30;;;15.10;;
77018;SDS011;66044;53.142;17.962;2022-12-19T15:47:39;39.20;;;16.00;;
77018;SDS011;66044;53.142;17.962;2022-12-19T15:50:14;34.00;;;15.20;;
77018;SDS011;66044;53.142;17.962;2022-12-19T15:52:45;34.00;;;15.00;;
77018;SDS011;66044;53.142;17.962;2022-12-19T15:55:13;36.50;;;16.70;;
77018;SDS011;66044;53.142;17.962;2022-12-19T15:57:54;35.90;;;15.10;;
77018;SDS011;66044;53.142;17.962;2022-12-19T16:00:24;30.00;;;12.00;;
77018;SDS011;66044;53.142;17.962;2022-12-19T16:02:54;36.80;;;15.30;;
77018;SDS011;66044;53.142;17.962;2022-12-19T16:05:21;30.10;;;13.30;;
77018;SDS011;66044;53.142;17.962;2022-12-19T16:07:50;42.90;;;17.40;;
77018;SDS011;66044;53.142;17.962;2022-12-19T16:10:17;36.20;;;14.90;;
77018;SDS011;66044;53.142;17.962;2022-12-19T16:13:05;26.40;;;10.70;;
77018;SDS011;66044;53.142;17.962;2022-12-19T16:15:31;34.60;;;13.50;;
77018;SDS011;66044;53.142;17.962;2022-12-19T16:18:00;35.80;;;15.10;;
77018;SDS011;66044;53.142;17.962;2022-12-19T16:20:29;42.70;;;17.00;;
77018;SDS011;66044;53.142;17.962;2022-12-19T16:22:57;35.80;;;14.10;;
77018;SDS011;66044;53.142;17.962;2022-12-19T16:25:26;37.50;;;15.70;;
77018;SDS011;66044;53.142;17.962;2022-12-19T16:27:59;31.10;;;14.20;;
77018;SDS011;66044;53.142;17.962;2022-12-19T16:30:29;35.10;;;15.80;;
77018;SDS011;66044;53.142;17.962;2022-12-19T16:32:57;32.40;;;14.80;;
77018;SDS011;66044;53.142;17.962;2022-12-19T16:35:24;35.40;;;13.20;;
77018;SDS011;66044;53.142;17.962;2022-12-19T16:37:52;27.00;;;10.90;;
77018;SDS011;66044;53.142;17.962;2022-12-19T16:40:20;34.30;;;14.60;;
77018;SDS011;66044;53.142;17.962;2022-12-19T16:42:48;34.40;;;13.80;;
77018;SDS011;66044;53.142;17.962;2022-12-19T16:45:20;30.60;;;12.50;;
77018;SDS011;66044;53.142;17.962;2022-12-19T16:47:49;29.00;;;12.70;;
77018;SDS011;66044;53.142;17.962;2022-12-19T16:50:17;33.30;;;14.30;;
77018;SDS011;66044;53.142;17.962;2022-12-19T16:52:48;32.00;;;13.30;;
77018;SDS011;66044;53.142;17.962;2022-12-19T16:55:15;22.80;;;10.30;;
77018;SDS011;66044;53.142;17.962;2022-12-19T16:57:45;38.30;;;14.90;;
77018;SDS011;66044;53.142;17.962;2022-12-19T17:00:15;44.40;;;17.20;;
77018;SDS011;66044;53.142;17.962;2022-12-19T17:02:45;38.10;;;14.80;;
77018;SDS011;66044;53.142;17.962;2022-12-19T17:05:22;36.20;;;13.90;;
77018;SDS011;66044;53.142;17.962;2022-12-19T17:07:51;36.10;;;14.70;;
77018;SDS011;66044;53.142;17.962;2022-12-19T17:10:19;32.90;;;13.70;;
77018;SDS011;66044;53.142;17.962;2022-12-19T17:12:49;29.70;;;13.60;;
77018;SDS011;66044;53.142;17.962;2022-12-19T17:15:26;21.40;;;9.50;;